Terminal Aerodrome Forecast
Issued by NWS

Home | Current Version | Previous Version | Text Only | Print | Product List | Glossary On
Versions: 1 2 3 4 5 6 7 8 9 10 11 12 13 14 15 16 17 18 19 20 21 22 23 24 25 26
000
FTUS44 KHGX 220907 AAD
TAFLBX
TAF AMD
KLBX 220907Z 2209/2306 00000KT 3SM BR VCSH FEW025
      TEMPO 2210/2212 6SM -SHRA BR SCT015
     FM221200 VRB04KT 6SM BR VCSH BKN015 BKN150
     FM221400 36008KT 6SM -RA BR VCTS BKN015CB
      TEMPO 2215/2217 36025KT 3SM TSRA
     FM221800 34010G20KT P6SM SCT025 BKN150
     FM222000 34013G23KT P6SM SCT180
     FM230400 35012KT P6SM SKC=

USA.gov is the U.S. government's official web portal to all federal, state and local government web resources and services.